sensor_id;sensor_type;location;lat;lon;timestamp;P1;durP1;ratioP1;P2;durP2;ratioP2
71003;SDS011;59025;42.050;-8.660;2022-11-15T13:18:39;0.40;;;0.40;;
71003;SDS011;59025;42.050;-8.660;2022-11-15T13:21:20;0.40;;;0.40;;
71003;SDS011;59025;42.050;-8.660;2022-11-15T13:24:11;0.40;;;0.40;;
71003;SDS011;59025;42.050;-8.660;2022-11-15T13:26:40;0.45;;;0.45;;
71003;SDS011;59025;42.050;-8.660;2022-11-15T13:29:15;0.40;;;0.40;;
71003;SDS011;59025;42.050;-8.660;2022-11-15T13:31:44;0.30;;;0.30;;
71003;SDS011;59025;42.050;-8.660;2022-11-15T13:34:20;3.28;;;1.33;;
71003;SDS011;59025;42.050;-8.660;2022-11-15T13:36:53;0.30;;;0.30;;
71003;SDS011;59025;42.050;-8.660;2022-11-15T13:39:25;0.40;;;0.40;;
71003;SDS011;59025;42.050;-8.660;2022-11-15T13:41:54;1.67;;;1.38;;
71003;SDS011;59025;42.050;-8.660;2022-11-15T13:44:24;0.47;;;0.47;;
71003;SDS011;59025;42.050;-8.660;2022-11-15T13:47:03;0.30;;;0.30;;
71003;SDS011;59025;42.050;-8.660;2022-11-15T13:49:33;0.30;;;0.30;;
71003;SDS011;59025;42.050;-8.660;2022-11-15T13:52:04;2.60;;;2.25;;
71003;SDS011;59025;42.050;-8.660;2022-11-15T13:54:33;0.40;;;0.40;;
71003;SDS011;59025;42.050;-8.660;2022-11-15T13:57:05;0.40;;;0.40;;
71003;SDS011;59025;42.050;-8.660;2022-11-15T13:59:43;0.35;;;0.35;;
71003;SDS011;59025;42.050;-8.660;2022-11-15T14:02:14;0.33;;;0.33;;
71003;SDS011;59025;42.050;-8.660;2022-11-15T14:04:47;1.20;;;1.20;;
71003;SDS011;59025;42.050;-8.660;2022-11-15T14:07:17;0.40;;;0.40;;
71003;SDS011;59025;42.050;-8.660;2022-11-15T14:09:46;0.32;;;0.32;;
71003;SDS011;59025;42.050;-8.660;2022-11-15T14:12:22;0.95;;;0.95;;
71003;SDS011;59025;42.050;-8.660;2022-11-15T14:14:54;0.30;;;0.30;;
71003;SDS011;59025;42.050;-8.660;2022-11-15T14:17:33;0.40;;;0.40;;
71003;SDS011;59025;42.050;-8.660;2022-11-15T14:20:18;0.40;;;0.40;;
71003;SDS011;59025;42.050;-8.660;2022-11-15T14:22:52;0.35;;;0.35;;
71003;SDS011;59025;42.050;-8.660;2022-11-15T14:25:20;0.40;;;0.40;;
71003;SDS011;59025;42.050;-8.660;2022-11-15T14:28:08;0.30;;;0.30;;
71003;SDS011;59025;42.050;-8.660;2022-11-15T14:30:42;1.17;;;1.13;;
71003;SDS011;59025;42.050;-8.660;2022-11-15T14:33:19;0.35;;;0.35;;
71003;SDS011;59025;42.050;-8.660;2022-11-15T14:35:50;0.25;;;0.25;;
71003;SDS011;59025;42.050;-8.660;2022-11-15T14:38:18;0.35;;;0.35;;
71003;SDS011;59025;42.050;-8.660;2022-11-15T14:40:46;0.20;;;0.20;;
71003;SDS011;59025;42.050;-8.660;2022-11-15T14:43:14;0.30;;;0.30;;
71003;SDS011;59025;42.050;-8.660;2022-11-15T14:45:41;0.30;;;0.30;;
71003;SDS011;59025;42.050;-8.660;2022-11-15T14:48:09;0.30;;;0.30;;
71003;SDS011;59025;42.050;-8.660;2022-11-15T14:50:36;0.35;;;0.35;;
71003;SDS011;59025;42.050;-8.660;2022-11-15T14:53:05;0.40;;;0.40;;
71003;SDS011;59025;42.050;-8.660;2022-11-15T14:55:34;1.33;;;1.25;;
71003;SDS011;59025;42.050;-8.660;2022-11-15T14:58:02;0.77;;;0.77;;
71003;SDS011;59025;42.050;-8.660;2022-11-15T15:00:30;0.98;;;0.98;;
71003;SDS011;59025;42.050;-8.660;2022-11-15T15:02:59;2.22;;;2.13;;
71003;SDS011;59025;42.050;-8.660;2022-11-15T15:05:29;0.53;;;0.53;;
71003;SDS011;59025;42.050;-8.660;2022-11-15T15:08:00;0.30;;;0.30;;
71003;SDS011;59025;42.050;-8.660;2022-11-15T15:10:35;0.40;;;0.40;;
71003;SDS011;59025;42.050;-8.660;2022-11-15T15:13:04;0.40;;;0.40;;
71003;SDS011;59025;42.050;-8.660;2022-11-15T15:15:32;2.15;;;2.05;;
71003;SDS011;59025;42.050;-8.660;2022-11-15T15:18:01;0.50;;;0.50;;
71003;SDS011;59025;42.050;-8.660;2022-11-15T15:20:30;0.65;;;0.65;;
71003;SDS011;59025;42.050;-8.660;2022-11-15T15:22:58;0.40;;;0.40;;
71003;SDS011;59025;42.050;-8.660;2022-11-15T15:25:26;0.40;;;0.40;;
71003;SDS011;59025;42.050;-8.660;2022-11-15T15:27:56;0.30;;;0.30;;
71003;SDS011;59025;42.050;-8.660;2022-11-15T15:30:25;0.33;;;0.33;;
71003;SDS011;59025;42.050;-8.660;2022-11-15T15:32:53;0.30;;;0.30;;
71003;SDS011;59025;42.050;-8.660;2022-11-15T15:35:20;0.38;;;0.38;;
71003;SDS011;59025;42.050;-8.660;2022-11-15T15:37:48;0.20;;;0.20;;
71003;SDS011;59025;42.050;-8.660;2022-11-15T15:40:18;0.40;;;0.40;;
71003;SDS011;59025;42.050;-8.660;2022-11-15T15:42:46;0.30;;;0.30;;
71003;SDS011;59025;42.050;-8.660;2022-11-15T15:45:16;0.30;;;0.30;;
71003;SDS011;59025;42.050;-8.660;2022-11-15T15:47:46;0.40;;;0.40;;
71003;SDS011;59025;42.050;-8.660;2022-11-15T15:50:17;0.30;;;0.30;;
71003;SDS011;59025;42.050;-8.660;2022-11-15T15:52:49;1.30;;;1.15;;
71003;SDS011;59025;42.050;-8.660;2022-11-15T15:55:17;0.30;;;0.30;;
71003;SDS011;59025;42.050;-8.660;2022-11-15T15:57:47;0.80;;;0.80;;
71003;SDS011;59025;42.050;-8.660;2022-11-15T16:00:17;0.30;;;0.30;;
71003;SDS011;59025;42.050;-8.660;2022-11-15T16:02:46;0.40;;;0.40;;
71003;SDS011;59025;42.050;-8.660;2022-11-15T16:05:13;0.40;;;0.40;;
71003;SDS011;59025;42.050;-8.660;2022-11-15T16:07:42;0.30;;;0.30;;
71003;SDS011;59025;42.050;-8.660;2022-11-15T16:10:21;0.30;;;0.30;;
71003;SDS011;59025;42.050;-8.660;2022-11-15T16:12:51;0.88;;;0.88;;
71003;SDS011;59025;42.050;-8.660;2022-11-15T16:15:21;1.08;;;1.08;;
71003;SDS011;59025;42.050;-8.660;2022-11-15T16:17:50;0.40;;;0.40;;
71003;SDS011;59025;42.050;-8.660;2022-11-15T16:20:24;0.40;;;0.40;;
71003;SDS011;59025;42.050;-8.660;2022-11-15T16:23:01;0.32;;;0.32;;
71003;SDS011;59025;42.050;-8.660;2022-11-15T16:25:30;0.40;;;0.40;;
71003;SDS011;59025;42.050;-8.660;2022-11-15T16:28:01;0.30;;;0.30;;
71003;SDS011;59025;42.050;-8.660;2022-11-15T16:30:30;0.40;;;0.40;;
71003;SDS011;59025;42.050;-8.660;2022-11-15T16:32:58;0.30;;;0.30;;
71003;SDS011;59025;42.050;-8.660;2022-11-15T16:35:27;0.30;;;0.30;;
71003;SDS011;59025;42.050;-8.660;2022-11-15T16:37:54;0.65;;;0.65;;
71003;SDS011;59025;42.050;-8.660;2022-11-15T16:40:26;0.30;;;0.30;;
71003;SDS011;59025;42.050;-8.660;2022-11-15T16:42:55;0.40;;;0.40;;
71003;SDS011;59025;42.050;-8.660;2022-11-15T16:45:24;0.30;;;0.30;;
71003;SDS011;59025;42.050;-8.660;2022-11-15T16:47:55;0.35;;;0.35;;
71003;SDS011;59025;42.050;-8.660;2022-11-15T16:50:23;0.40;;;0.40;;
71003;SDS011;59025;42.050;-8.660;2022-11-15T16:52:52;0.45;;;0.45;;
71003;SDS011;59025;42.050;-8.660;2022-11-15T16:55:21;0.40;;;0.40;;
71003;SDS011;59025;42.050;-8.660;2022-11-15T16:57:50;0.30;;;0.30;;
71003;SDS011;59025;42.050;-8.660;2022-11-15T17:00:18;0.50;;;0.50;;
71003;SDS011;59025;42.050;-8.660;2022-11-15T17:02:47;0.40;;;0.40;;
71003;SDS011;59025;42.050;-8.660;2022-11-15T17:05:18;0.30;;;0.30;;
71003;SDS011;59025;42.050;-8.660;2022-11-15T17:07:46;0.30;;;0.30;;
71003;SDS011;59025;42.050;-8.660;2022-11-15T17:10:16;0.30;;;0.30;;
71003;SDS011;59025;42.050;-8.660;2022-11-15T17:12:44;0.30;;;0.30;;
71003;SDS011;59025;42.050;-8.660;2022-11-15T17:15:12;1.00;;;0.70;;
71003;SDS011;59025;42.050;-8.660;2022-11-15T17:17:39;0.40;;;0.40;;
71003;SDS011;59025;42.050;-8.660;2022-11-15T17:20:11;0.40;;;0.40;;
71003;SDS011;59025;42.050;-8.660;2022-11-15T17:22:42;0.50;;;0.50;;
71003;SDS011;59025;42.050;-8.660;2022-11-15T17:25:11;0.50;;;0.50;;
71003;SDS011;59025;42.050;-8.660;2022-11-15T17:27:39;4.32;;;4.10;;
71003;SDS011;59025;42.050;-8.660;2022-11-15T17:30:08;2.67;;;2.58;;
71003;SDS011;59025;42.050;-8.660;2022-11-15T17:32:39;1.38;;;1.30;;
71003;SDS011;59025;42.050;-8.660;2022-11-15T17:35:07;0.40;;;0.40;;
71003;SDS011;59025;42.050;-8.660;2022-11-15T17:37:37;1.63;;;1.60;;
71003;SDS011;59025;42.050;-8.660;2022-11-15T17:40:07;0.35;;;0.35;;
71003;SDS011;59025;42.050;-8.660;2022-11-15T17:42:35;0.30;;;0.30;;
71003;SDS011;59025;42.050;-8.660;2022-11-15T17:45:03;0.40;;;0.40;;
71003;SDS011;59025;42.050;-8.660;2022-11-15T17:47:30;0.20;;;0.20;;
71003;SDS011;59025;42.050;-8.660;2022-11-15T17:49:58;0.30;;;0.30;;
71003;SDS011;59025;42.050;-8.660;2022-11-15T17:52:25;0.40;;;0.40;;
71003;SDS011;59025;42.050;-8.660;2022-11-15T17:54:53;1.67;;;1.58;;
71003;SDS011;59025;42.050;-8.660;2022-11-15T17:57:22;0.30;;;0.30;;
71003;SDS011;59025;42.050;-8.660;2022-11-15T17:59:49;0.30;;;0.30;;
71003;SDS011;59025;42.050;-8.660;2022-11-15T18:02:17;0.35;;;0.35;;
71003;SDS011;59025;42.050;-8.660;2022-11-15T18:04:45;0.30;;;0.30;;
71003;SDS011;59025;42.050;-8.660;2022-11-15T18:07:12;1.20;;;1.20;;
71003;SDS011;59025;42.050;-8.660;2022-11-15T18:09:40;0.30;;;0.30;;
71003;SDS011;59025;42.050;-8.660;2022-11-15T18:12:08;0.30;;;0.30;;
71003;SDS011;59025;42.050;-8.660;2022-11-15T18:14:37;0.30;;;0.30;;
71003;SDS011;59025;42.050;-8.660;2022-11-15T18:17:04;0.30;;;0.30;;
71003;SDS011;59025;42.050;-8.660;2022-11-15T18:19:32;0.30;;;0.30;;
71003;SDS011;59025;42.050;-8.660;2022-11-15T18:22:00;0.30;;;0.30;;
71003;SDS011;59025;42.050;-8.660;2022-11-15T18:24:30;0.30;;;0.30;;
71003;SDS011;59025;42.050;-8.660;2022-11-15T18:26:59;0.30;;;0.30;;
71003;SDS011;59025;42.050;-8.660;2022-11-15T18:29:27;0.40;;;0.40;;
71003;SDS011;59025;42.050;-8.660;2022-11-15T18:31:56;0.60;;;0.60;;
71003;SDS011;59025;42.050;-8.660;2022-11-15T18:34:24;0.30;;;0.30;;
71003;SDS011;59025;42.050;-8.660;2022-11-15T18:36:56;0.33;;;0.33;;
71003;SDS011;59025;42.050;-8.660;2022-11-15T18:39:23;0.75;;;0.75;;
71003;SDS011;59025;42.050;-8.660;2022-11-15T18:41:51;0.30;;;0.30;;
71003;SDS011;59025;42.050;-8.660;2022-11-15T18:44:18;0.30;;;0.30;;
71003;SDS011;59025;42.050;-8.660;2022-11-15T18:46:46;0.40;;;0.40;;
71003;SDS011;59025;42.050;-8.660;2022-11-15T18:49:15;0.33;;;0.33;;
71003;SDS011;59025;42.050;-8.660;2022-11-15T18:51:44;0.30;;;0.30;;
71003;SDS011;59025;42.050;-8.660;2022-11-15T18:54:12;0.40;;;0.40;;
71003;SDS011;59025;42.050;-8.660;2022-11-15T18:56:41;0.70;;;0.70;;
71003;SDS011;59025;42.050;-8.660;2022-11-15T18:59:10;0.32;;;0.32;;
71003;SDS011;59025;42.050;-8.660;2022-11-15T19:01:38;0.23;;;0.23;;
71003;SDS011;59025;42.050;-8.660;2022-11-15T19:04:07;0.30;;;0.30;;
71003;SDS011;59025;42.050;-8.660;2022-11-15T19:06:37;7.28;;;6.65;;
71003;SDS011;59025;42.050;-8.660;2022-11-15T19:09:06;3.58;;;3.25;;
71003;SDS011;59025;42.050;-8.660;2022-11-15T19:11:35;0.40;;;0.40;;
71003;SDS011;59025;42.050;-8.660;2022-11-15T19:14:05;0.40;;;0.40;;
71003;SDS011;59025;42.050;-8.660;2022-11-15T19:16:34;0.52;;;0.52;;
71003;SDS011;59025;42.050;-8.660;2022-11-15T19:19:04;0.30;;;0.30;;
71003;SDS011;59025;42.050;-8.660;2022-11-15T19:21:32;0.95;;;0.95;;
71003;SDS011;59025;42.050;-8.660;2022-11-15T19:24:01;0.40;;;0.40;;
71003;SDS011;59025;42.050;-8.660;2022-11-15T19:26:29;1.20;;;1.20;;
71003;SDS011;59025;42.050;-8.660;2022-11-15T19:28:57;0.40;;;0.40;;
71003;SDS011;59025;42.050;-8.660;2022-11-15T19:31:26;2.45;;;2.35;;
71003;SDS011;59025;42.050;-8.660;2022-11-15T19:33:58;0.32;;;0.32;;
71003;SDS011;59025;42.050;-8.660;2022-11-15T19:36:27;0.82;;;0.82;;
71003;SDS011;59025;42.050;-8.660;2022-11-15T19:38:57;1.03;;;1.03;;
71003;SDS011;59025;42.050;-8.660;2022-11-15T19:41:27;7.47;;;6.82;;
71003;SDS011;59025;42.050;-8.660;2022-11-15T19:43:55;0.30;;;0.30;;
71003;SDS011;59025;42.050;-8.660;2022-11-15T19:46:22;0.30;;;0.30;;
71003;SDS011;59025;42.050;-8.660;2022-11-15T19:48:51;0.30;;;0.30;;
71003;SDS011;59025;42.050;-8.660;2022-11-15T19:51:19;0.30;;;0.30;;
71003;SDS011;59025;42.050;-8.660;2022-11-15T19:53:48;0.30;;;0.30;;
71003;SDS011;59025;42.050;-8.660;2022-11-15T19:56:17;0.30;;;0.30;;
71003;SDS011;59025;42.050;-8.660;2022-11-15T19:58:48;1.00;;;0.68;;
71003;SDS011;59025;42.050;-8.660;2022-11-15T20:01:17;0.52;;;0.52;;
71003;SDS011;59025;42.050;-8.660;2022-11-15T20:03:46;1.40;;;1.30;;
71003;SDS011;59025;42.050;-8.660;2022-11-15T20:06:14;0.30;;;0.30;;
71003;SDS011;59025;42.050;-8.660;2022-11-15T20:08:43;13.85;;;9.93;;
71003;SDS011;59025;42.050;-8.660;2022-11-15T20:11:12;0.50;;;0.50;;
71003;SDS011;59025;42.050;-8.660;2022-11-15T20:13:40;0.32;;;0.32;;
71003;SDS011;59025;42.050;-8.660;2022-11-15T20:16:12;0.33;;;0.33;;
71003;SDS011;59025;42.050;-8.660;2022-11-15T20:18:42;11.02;;;5.18;;
71003;SDS011;59025;42.050;-8.660;2022-11-15T20:21:09;0.30;;;0.30;;
71003;SDS011;59025;42.050;-8.660;2022-11-15T20:23:37;0.30;;;0.30;;
71003;SDS011;59025;42.050;-8.660;2022-11-15T20:26:05;0.30;;;0.30;;
71003;SDS011;59025;42.050;-8.660;2022-11-15T20:28:33;4.67;;;3.67;;
71003;SDS011;59025;42.050;-8.660;2022-11-15T20:31:04;0.40;;;0.40;;
71003;SDS011;59025;42.050;-8.660;2022-11-15T20:33:33;0.40;;;0.40;;
71003;SDS011;59025;42.050;-8.660;2022-11-15T20:36:02;0.30;;;0.30;;
71003;SDS011;59025;42.050;-8.660;2022-11-15T20:38:30;0.40;;;0.40;;
71003;SDS011;59025;42.050;-8.660;2022-11-15T20:40:58;0.40;;;0.40;;
71003;SDS011;59025;42.050;-8.660;2022-11-15T20:43:26;0.40;;;0.40;;
71003;SDS011;59025;42.050;-8.660;2022-11-15T20:45:54;0.80;;;0.80;;
71003;SDS011;59025;42.050;-8.660;2022-11-15T20:48:22;0.30;;;0.30;;
71003;SDS011;59025;42.050;-8.660;2022-11-15T20:50:51;2.63;;;2.53;;
71003;SDS011;59025;42.050;-8.660;2022-11-15T20:53:30;0.30;;;0.30;;
71003;SDS011;59025;42.050;-8.660;2022-11-15T20:56:01;0.40;;;0.40;;
71003;SDS011;59025;42.050;-8.660;2022-11-15T20:58:31;0.40;;;0.40;;
71003;SDS011;59025;42.050;-8.660;2022-11-15T21:00:59;0.30;;;0.30;;
71003;SDS011;59025;42.050;-8.660;2022-11-15T21:03:28;0.40;;;0.40;;
71003;SDS011;59025;42.050;-8.660;2022-11-15T21:05:58;0.30;;;0.30;;
71003;SDS011;59025;42.050;-8.660;2022-11-15T21:08:26;0.40;;;0.40;;
71003;SDS011;59025;42.050;-8.660;2022-11-15T21:11:14;0.40;;;0.40;;
71003;SDS011;59025;42.050;-8.660;2022-11-15T21:13:58;0.50;;;0.50;;
71003;SDS011;59025;42.050;-8.660;2022-11-15T21:16:27;9.30;;;8.55;;
71003;SDS011;59025;42.050;-8.660;2022-11-15T21:18:54;1.20;;;1.13;;
71003;SDS011;59025;42.050;-8.660;2022-11-15T21:21:24;0.30;;;0.30;;
71003;SDS011;59025;42.050;-8.660;2022-11-15T21:23:52;0.40;;;0.40;;
71003;SDS011;59025;42.050;-8.660;2022-11-15T21:26:20;0.30;;;0.30;;
71003;SDS011;59025;42.050;-8.660;2022-11-15T21:28:50;0.70;;;0.70;;
71003;SDS011;59025;42.050;-8.660;2022-11-15T21:31:22;0.33;;;0.33;;
71003;SDS011;59025;42.050;-8.660;2022-11-15T21:33:54;0.38;;;0.38;;
71003;SDS011;59025;42.050;-8.660;2022-11-15T21:36:24;0.40;;;0.40;;
71003;SDS011;59025;42.050;-8.660;2022-11-15T21:38:54;0.30;;;0.30;;
71003;SDS011;59025;42.050;-8.660;2022-11-15T21:41:22;0.40;;;0.40;;
71003;SDS011;59025;42.050;-8.660;2022-11-15T21:43:50;0.40;;;0.40;;
71003;SDS011;59025;42.050;-8.660;2022-11-15T21:46:18;0.38;;;0.38;;
71003;SDS011;59025;42.050;-8.660;2022-11-15T21:48:46;0.40;;;0.40;;
71003;SDS011;59025;42.050;-8.660;2022-11-15T21:51:14;0.30;;;0.30;;
71003;SDS011;59025;42.050;-8.660;2022-11-15T21:53:48;0.40;;;0.40;;
71003;SDS011;59025;42.050;-8.660;2022-11-15T21:56:16;0.33;;;0.33;;
71003;SDS011;59025;42.050;-8.660;2022-11-15T21:58:44;0.30;;;0.30;;
71003;SDS011;59025;42.050;-8.660;2022-11-15T22:01:11;0.40;;;0.40;;
71003;SDS011;59025;42.050;-8.660;2022-11-15T22:03:56;0.30;;;0.30;;
71003;SDS011;59025;42.050;-8.660;2022-11-15T22:06:24;0.30;;;0.30;;
71003;SDS011;59025;42.050;-8.660;2022-11-15T22:08:53;0.40;;;0.40;;
71003;SDS011;59025;42.050;-8.660;2022-11-15T22:11:21;0.30;;;0.30;;
71003;SDS011;59025;42.050;-8.660;2022-11-15T22:13:49;0.30;;;0.30;;
71003;SDS011;59025;42.050;-8.660;2022-11-15T22:16:16;0.30;;;0.30;;
71003;SDS011;59025;42.050;-8.660;2022-11-15T22:18:44;0.32;;;0.32;;
71003;SDS011;59025;42.050;-8.660;2022-11-15T22:21:13;0.23;;;0.23;;
71003;SDS011;59025;42.050;-8.660;2022-11-15T22:23:44;0.30;;;0.30;;
71003;SDS011;59025;42.050;-8.660;2022-11-15T22:26:14;0.85;;;0.85;;
71003;SDS011;59025;42.050;-8.660;2022-11-15T22:28:42;0.63;;;0.63;;
71003;SDS011;59025;42.050;-8.660;2022-11-15T22:31:10;0.40;;;0.40;;
71003;SDS011;59025;42.050;-8.660;2022-11-15T22:33:38;0.40;;;0.40;;
71003;SDS011;59025;42.050;-8.660;2022-11-15T22:36:14;0.30;;;0.30;;
71003;SDS011;59025;42.050;-8.660;2022-11-15T22:38:41;0.30;;;0.30;;
71003;SDS011;59025;42.050;-8.660;2022-11-15T22:41:10;0.38;;;0.38;;
71003;SDS011;59025;42.050;-8.660;2022-11-15T22:43:41;0.38;;;0.38;;
71003;SDS011;59025;42.050;-8.660;2022-11-15T22:46:09;0.30;;;0.30;;
71003;SDS011;59025;42.050;-8.660;2022-11-15T22:48:37;0.30;;;0.30;;
71003;SDS011;59025;42.050;-8.660;2022-11-15T22:51:06;0.40;;;0.40;;
71003;SDS011;59025;42.050;-8.660;2022-11-15T22:53:36;0.30;;;0.30;;
71003;SDS011;59025;42.050;-8.660;2022-11-15T22:56:05;0.40;;;0.40;;
71003;SDS011;59025;42.050;-8.660;2022-11-15T22:58:43;0.30;;;0.30;;
71003;SDS011;59025;42.050;-8.660;2022-11-15T23:01:14;0.30;;;0.30;;
71003;SDS011;59025;42.050;-8.660;2022-11-15T23:03:45;0.30;;;0.30;;
71003;SDS011;59025;42.050;-8.660;2022-11-15T23:06:16;0.30;;;0.30;;
71003;SDS011;59025;42.050;-8.660;2022-11-15T23:08:44;0.40;;;0.40;;
71003;SDS011;59025;42.050;-8.660;2022-11-15T23:11:13;12.83;;;4.23;;
71003;SDS011;59025;42.050;-8.660;2022-11-15T23:13:59;9.70;;;3.15;;
71003;SDS011;59025;42.050;-8.660;2022-11-15T23:16:27;14.00;;;3.20;;
71003;SDS011;59025;42.050;-8.660;2022-11-15T23:19:04;16.75;;;3.50;;
71003;SDS011;59025;42.050;-8.660;2022-11-15T23:21:33;14.10;;;3.83;;
71003;SDS011;59025;42.050;-8.660;2022-11-15T23:24:19;11.20;;;2.90;;
71003;SDS011;59025;42.050;-8.660;2022-11-15T23:26:48;14.73;;;2.58;;
71003;SDS011;59025;42.050;-8.660;2022-11-15T23:29:19;14.10;;;3.20;;
71003;SDS011;59025;42.050;-8.660;2022-11-15T23:31:49;14.65;;;3.20;;
71003;SDS011;59025;42.050;-8.660;2022-11-15T23:34:34;14.93;;;2.95;;
71003;SDS011;59025;42.050;-8.660;2022-11-15T23:37:03;14.93;;;4.10;;
71003;SDS011;59025;42.050;-8.660;2022-11-15T23:39:32;9.60;;;3.05;;
71003;SDS011;59025;42.050;-8.660;2022-11-15T23:42:00;12.18;;;3.00;;
71003;SDS011;59025;42.050;-8.660;2022-11-15T23:44:29;9.05;;;2.33;;
71003;SDS011;59025;42.050;-8.660;2022-11-15T23:46:57;9.65;;;2.28;;
71003;SDS011;59025;42.050;-8.660;2022-11-15T23:49:24;12.73;;;3.20;;
71003;SDS011;59025;42.050;-8.660;2022-11-15T23:51:51;9.13;;;3.00;;
71003;SDS011;59025;42.050;-8.660;2022-11-15T23:54:19;11.98;;;2.95;;
71003;SDS011;59025;42.050;-8.660;2022-11-15T23:56:47;13.52;;;3.38;;
71003;SDS011;59025;42.050;-8.660;2022-11-15T23:59:14;13.13;;;3.67;;
